Create Custom Reports and Graphics: Custom Report

Latest Observations

Map

15 Minute Data

Latest Observation

39 Stations

15 Minute Data | America/Los_Angeles
as of 11/30/21 7:29 PM PST
Station Date Time Temp (°F) RH (%) Dew Pt (°F) Wind Dir (°) Wind Spd (mph) Wind Gust (mph) Solar Rad (W/m2) Latest Rain (In) Daily Rain (In) Daily Max Temp (°F) Daily Min Temp (°F) Daily Max Wind (mph) Daily ETo (in) Daily Leaf Wet Hrs (hrs)
Colony 1 11/30/21 1915 50.5   3.4 95   2 49.0   4.0 NNE | 31 0.6   0.5 1.8   0.4 0   0 0.00 0.00 70.5   0.7 39.4   1.2 5.8   3.2 0.054   0.005 -
Colony 2 11/30/21 1915 47.8   1.3 92   2 45.5   1.8 NE | 55 0.9   0.3 1.5   1.1 0   0 0.00 0.00 69.8   2.6 37.5   0.5 6.4   1.9 0.056   0.005 -
5 Wells 11/30/21 1915 49.2   1.3 100   0 49.2   1.3 E | 80 1.6   0.2 2.8   0.4 15   7 0.00 0.00 68.0   0.6 38.8   1.2 9.9   1.1 0.060   0.006 -
Simmerhorn 11/30/21 1915 49.9   0.9 100   2 50.0   1.4 - - - - - - 67.0   1.9 39.4   0.2 - - -
Galt-East 11/30/21 1915 50.4   0.6 98   7 50.0   2.4 NNE | 25 0.8   1.3 2.2   0.9 0   0 0.00 0.00 67.2   0.9 39.9   1.5 7.3   2.4 0.051   0.004 -
Borden Hills 11/30/21 1915 51.6   1.0 93   1 49.7   1.2 NE | 49 3.3   0.2 4.0   0.5 0   0 0.00 0.00 69.5   0.8 41.2   0.2 8.1   2.8 0.054   0.009 -
Sierra Loma-L27 11/30/21 1915 52.6   0.0 94   1 50.8   0.3 NNE | 16 1.4   0.5 2.7   1.0 - 0.00 0.00 68.6   0.8 41.7   1.4 7.3   3.7 - -
Lockeford 11/30/21 1915 50.2   0.7 94   4 48.4   1.8 NNE | 17 1.3   1.2 4.8   3.4 1   0 0.00 0.00 66.4   0.7 37.3   1.0 7.8   1.7 0.053   0.004 11.2   0.7
Lone Oak-L28 11/30/21 1915 43.8   1.9 95   2 42.4   1.3 ESE | 120 1.8   0.0 2.3   0.4 - 0.00 0.00 68.2   0.7 35.2   1.8 6.3   3.9 - -
Kost Rd 11/30/21 1915 50.1   1.9 98   1 49.7   2.2 E | 82 0.8   0.8 1.7   1.7 0   0 0.00 0.00 68.5   0.8 37.7   0.5 7.1   2.0 0.049   0.002 -
Thornton 11/30/21 1915 48.8   1.0 88   3 45.4   2.0 NW | 312 0.0   0.0 1.1   1.1 0   0 0.00 0.00 67.7   0.2 37.2   0.2 5.8   4.0 0.053   0.002 11.6   0.2
Lodi (LangeTwins) 11/30/21 1915 48.9   0.5 96   1 47.8   0.9 ESE | 117 0.2   0.2 2.4   2.4 0   0 0.00 0.00 69.4   0.0 37.8   0.7 4.8   3.0 0.050   0.000 9.0   0.4
Gilbeau Ranch 11/30/21 1915 49.2   0.5 96   5 48.0   1.9 NE | 50 0.4   0.4 1.5   1.5 0   0 0.00 0.00 68.1   1.7 38.8   1.0 6.8   1.8 0.051   0.003 -
Galt West 11/30/21 1915 49.3   0.4 93   1 47.5   0.7 ENE | 74 0.3   0.6 1.8   0.3 0   0 0.00 0.00 68.3   0.9 38.3   0.5 6.1   3.2 0.052   0.003 -
Valley Oak 11/30/21 1915 47.3   1.0 99   4 46.9   2.2 N | 349 0.7   0.5 2.7   1.2 0   0 0.00 0.00 68.6   1.6 36.5   0.0 6.3   2.8 0.052   0.004 -
Guard Rd (Lodi WSW) 11/30/21 1915 50.0   3.8 96   4 48.9   4.8 ESE | 120 1.1   0.6 2.5   1.2 0   0 0.00 0.00 68.7   0.2 37.3   2.0 6.5   3.2 0.052   0.003 7.7   0.2
Linden 11/30/21 1915 48.3   2.4 96   1 47.4   2.8 W | 280 0.1   0.1 0.8   0.4 - 0.00 0.00 71.3   0.8 36.2   0.8 7.5   1.2 - 11.7   0.0
DeVries Road-North 11/30/21 1915 50.8   2.2 99   1 50.5   2.5 NE | 37 1.1   1.0 1.5   0.6 0   0 0.00 0.00 69.0   0.1 35.9   0.7 5.9   2.3 0.052   0.000 -
Acampo 11/30/21 1915 48.0   1.3 90   3 45.2   2.1 N | 0 0.0   0.1 0.0   2.4 0   0 - 0.00 67.8   0.8 36.2   0.0 7.8   3.4 0.054   0.002 16.8   4.4
Acampo (Woodbridge) 11/30/21 1915 53.7   0.1 92   4 51.4   1.4 W | 275 0.7   0.4 2.7   0.7 0   0 0.00 0.00 68.5   1.0 39.4   1.2 7.1   3.9 0.053   0.004 -
Lodi West 11/26/21 0645 39.2   3.6 100   2 39.2   4.0 NW | 317 1.2   1.1 3.3   2.2 0   1 0.00 0.00 43.2   1.2 37.9   2.5 3.3   0.4 0.000   0.000 5.6   1.0
Teresi-Alpine Rd (East Lodi) 11/30/21 1915 50.6   1.2 93   2 48.7   1.9 NE | 56 1.1   0.3 3.0   0.7 0   0 0.00 0.00 69.1   0.2 38.3   0.9 6.3   4.6 - -
Victor - N (Katusha) 11/30/21 1915 50.4   1.7 96   5 49.2   3.1 ENE | 69 0.2   0.2 2.1   2.1 - 0.00 0.00 68.1   0.3 38.5   1.1 - - -
Live Oak 11/30/21 1915 49.3   2.7 98   4 48.8   3.7 E | 89 0.7   0.7 2.5   2.0 0   0 0.00 0.00 68.9   0.0 36.4   0.7 6.1   2.6 0.053   0.000 -
Sheldon 11/30/21 1915 47.0   0.3 93   4 45.0   0.9 N | 0 0.0   0.3 0.0   2.1 0   0 0.00 0.00 68.6   0.6 35.9   0.1 7.1   2.4 0.059   0.001 10.6   1.3
Sloughhouse 11/30/21 1915 45.4   1.2 92   3 43.3   2.1 N | 0 0.0   0.0 0.0   1.4 0   0 0.00 0.00 69.9   0.7 35.0   0.1 7.4   2.7 0.059   0.002 -
Utter - Wilson 11/30/21 1915 46.7   0.2 98   2 46.0   0.2 WSW | 258 1.4   1.4 2.5   2.1 0   0 0.00 0.00 69.6   2.8 37.1   0.2 7.7   2.0 0.057   0.003 -
Clarksburg 11/30/21 1915 48.6   0.6 97   3 47.8   0.2 SW | 224 1.8   0.7 4.1   1.6 1   0 0.00 0.00 68.0   2.3 37.7   0.0 7.4   2.6 0.058   0.002 -
Clarksburg-3A2 11/30/21 1915 47.6   1.2 100   1 47.6   0.9 SSE | 160 2.0   0.6 3.1   0.0 0   0 0.00 0.00 68.1   0.7 36.6   1.4 8.3   2.5 0.052   0.002 -
Gorter - Wilson 11/30/21 1915 42.2   2.2 98   1 41.7   2.0 W | 279 0.4   0.7 1.4   0.5 0   0 0.00 0.00 69.4   1.3 34.4   0.2 6.6   2.2 0.053   0.001 -
Hood 11/30/21 1915 46.0   0.6 98   4 45.6   0.5 W | 260 0.9   0.0 2.2   0.4 0   0 0.00 0.00 70.7   1.4 36.0   0.9 6.3   1.7 0.056   0.001 -
Courtland-C3 11/30/21 1915 48.2   1.8 97   0 47.3   1.8 WSW | 255 0.6   0.6 1.7   1.8 - 0.00 0.00 68.5   0.4 36.2   1.2 6.7   1.7 - -
Pacific Fruit 11/30/21 1915 49.9   0.3 94   4 48.3   1.6 SE | 140 0.1   0.5 0.7   1.7 0   0 0.00 0.00 70.8   0.6 36.8   0.7 5.7   3.8 0.046   0.007 -
Ryer Island South 11/30/21 1900 43.2   4.5 97   1 42.4   4.7 N | 0 0.0   1.4 0.0   2.8 0   0 0.00 0.00 68.8   0.9 36.4   0.8 5.8   1.6 0.040   0.012 13.0   0.4
Farmington (Mobley100) 11/30/21 1915 48.3   1.0 91   0 45.8   1.0 ESE | 115 0.0   0.0 0.9   0.9 - - - 69.1   0.5 37.9   1.1 4.6   2.7 - -
Collegeville 11/30/21 1915 49.3   1.6 97   1 48.5   2.0 SE | 135 0.0   0.0 0.6   0.6 0   0 0.00 0.00 70.1   0.7 38.0   1.0 5.3   3.8 0.056   0.001 -
Oakdale North (28 Mile Rd) 11/30/21 1915 50.6   2.3 96   3 49.5   3.2 E | 92 0.1   0.1 0.7   0.7 - - - 67.1   0.2 39.8   2.4 4.7   3.7 - -
Escalon 11/30/21 1915 49.0   0.4 94   1 47.5   0.7 N | 0 0.0   0.0 0.0   0.0 - 0.00 0.00 72.2   0.9 39.0   2.5 5.7   4.5 - 10.6   1.4
Claussen 11/30/21 1915 51.5   1.8 90   5 48.6   0.2 S | 170 1.5   1.4 4.8   4.0 0   0 0.00 0.00 69.8   0.9 37.5   1.7 8.4   2.8 0.059   0.001 -
Max     53.7 100 51.4 - 3.3 4.8 15 0.00 0.00 72.2 41.7 9.9 0.060 16.8
Avg     48.8 95 47.5 - 0.8 1.9 1 0.00 - - - - - -
Min     42.2 88 41.7 - 0.0 0.0 0 0.00 0.00 66.4 34.4 4.6 0.040 7.7

Latest Observations

Map

Hourly Data